createdAt,value
2023-02-22T00:00:43.670Z,99003.09
2023-02-22T00:03:15.291Z,99003.59
2023-02-22T00:05:46.425Z,99009.71
2023-02-22T00:08:16.006Z,99009.77
2023-02-22T00:10:44.345Z,99025.11
2023-02-22T00:13:13.473Z,99025.11
2023-02-22T00:15:45.232Z,99028.57
2023-02-22T00:18:13.439Z,99042.13
2023-02-22T00:20:40.665Z,99041.73
2023-02-22T00:23:09.416Z,99046.98
2023-02-22T00:25:36.169Z,99048.23
2023-02-22T00:28:04.627Z,99054.88
2023-02-22T00:30:33.211Z,99060.66
2023-02-22T00:33:02.989Z,99065.07
2023-02-22T00:35:30.222Z,99072.60
2023-02-22T00:38:01.096Z,99078.50
2023-02-22T00:40:32.728Z,99083.17
2023-02-22T00:43:04.020Z,99086.12
2023-02-22T00:45:32.563Z,99094.20
2023-02-22T00:47:59.816Z,99096.83
2023-02-22T00:50:28.848Z,99094.38
2023-02-22T00:52:56.173Z,99098.40
2023-02-22T00:55:28.020Z,99098.88
2023-02-22T00:57:55.192Z,99104.98
2023-02-22T01:00:31.344Z,99111.83
2023-02-22T01:02:58.484Z,99118.99
2023-02-22T01:05:27.035Z,99121.02
2023-02-22T01:07:55.500Z,99126.27
2023-02-22T01:10:24.237Z,99129.46
2023-02-22T01:12:54.898Z,99134.05
2023-02-22T01:15:22.738Z,99138.06
2023-02-22T01:17:50.924Z,99141.70
2023-02-22T01:20:18.086Z,99145.88
2023-02-22T01:22:46.525Z,99152.19
2023-02-22T01:25:21.770Z,99153.13
2023-02-22T01:27:49.593Z,99157.21
2023-02-22T01:30:19.407Z,99163.23
2023-02-22T01:32:46.246Z,99166.71
2023-02-22T01:35:17.889Z,99176.18
2023-02-22T01:37:45.224Z,99174.30
2023-02-22T01:40:23.231Z,99181.22
2023-02-22T01:42:54.501Z,99187.22
2023-02-22T01:45:31.885Z,99193.38
2023-02-22T01:48:16.123Z,99202.17
2023-02-22T01:50:59.039Z,99202.91
2023-02-22T01:53:37.296Z,99215.23
2023-02-22T01:56:04.649Z,99215.96
2023-02-22T01:58:33.054Z,99223.68
2023-02-22T02:01:00.665Z,99223.85
2023-02-22T02:03:29.334Z,99224.55
2023-02-22T02:05:58.068Z,99227.19
2023-02-22T02:08:53.453Z,99235.29
2023-02-22T02:11:24.093Z,99243.54
2023-02-22T02:13:56.184Z,99242.66
2023-02-22T02:16:24.467Z,99251.08
2023-02-22T02:18:51.622Z,99256.50
2023-02-22T02:21:18.651Z,99258.24
2023-02-22T02:23:58.887Z,99263.14
2023-02-22T02:26:34.434Z,99268.41
2023-02-22T02:29:33.047Z,99272.08
2023-02-22T02:32:08.908Z,99283.10
2023-02-22T02:35:03.234Z,99285.04
2023-02-22T02:38:07.950Z,99288.73
2023-02-22T02:40:40.487Z,99292.05
2023-02-22T02:43:30.206Z,99297.50
2023-02-22T02:46:03.805Z,99302.92
2023-02-22T02:48:30.803Z,99306.78
2023-02-22T02:50:58.403Z,99313.63
2023-02-22T02:53:37.017Z,99315.05
2023-02-22T02:56:04.156Z,99320.31
2023-02-22T02:58:31.064Z,99321.55
2023-02-22T03:00:59.703Z,99322.77
2023-02-22T03:03:36.958Z,99331.17
2023-02-22T03:06:41.585Z,99334.87
2023-02-22T03:09:14.125Z,99337.85
2023-02-22T03:12:01.599Z,99341.02
2023-02-22T03:14:40.064Z,99346.26
2023-02-22T03:17:11.697Z,99353.45
2023-02-22T03:19:51.457Z,99356.77
2023-02-22T03:22:25.534Z,99362.58
2023-02-22T03:25:18.842Z,99367.66
2023-02-22T03:27:52.761Z,99369.42
2023-02-22T03:30:23.497Z,99372.75
2023-02-22T03:32:54.042Z,99379.59
2023-02-22T03:35:23.451Z,99382.92
2023-02-22T03:37:54.328Z,99381.52
2023-02-22T03:40:26.367Z,99383.45
2023-02-22T03:43:16.821Z,99387.33
2023-02-22T03:45:45.243Z,99390.29
2023-02-22T03:49:29.982Z,99403.16
2023-02-22T03:51:58.308Z,99402.13
2023-02-22T03:54:27.612Z,99406.54
2023-02-22T03:57:07.983Z,99402.15
2023-02-22T03:59:39.227Z,99406.88
2023-02-22T04:02:07.698Z,99407.75
2023-02-22T04:04:36.127Z,99408.44
2023-02-22T04:07:04.822Z,99407.04
2023-02-22T04:09:37.996Z,99410.37
2023-02-22T04:12:06.965Z,99414.79
2023-02-22T04:14:50.081Z,99423.02
2023-02-22T04:17:18.421Z,99429.52
2023-02-22T04:19:46.553Z,99436.51
2023-02-22T04:22:15.629Z,99442.11
2023-02-22T04:24:45.507Z,99446.66
2023-02-22T04:27:13.598Z,99449.46
2023-02-22T04:29:43.127Z,99450.52
2023-02-22T04:32:13.639Z,99454.19
2023-02-22T04:34:43.292Z,99455.36
2023-02-22T04:37:12.575Z,99460.75
2023-02-22T04:39:41.248Z,99468.29
2023-02-22T04:42:09.534Z,99473.73
2023-02-22T04:44:38.097Z,99475.45
2023-02-22T04:47:06.643Z,99480.98
2023-02-22T04:49:36.835Z,99479.84
2023-02-22T04:52:06.328Z,99484.16
2023-02-22T04:54:39.654Z,99495.85
2023-02-22T04:57:08.013Z,99503.89
2023-02-22T04:59:36.179Z,99503.08
2023-02-22T05:02:04.565Z,99519.57
2023-02-22T05:04:34.706Z,99524.96
2023-02-22T05:07:02.904Z,99526.45
2023-02-22T05:09:31.136Z,99532.50
2023-02-22T05:12:02.888Z,99539.35
2023-02-22T05:14:31.132Z,99539.95
2023-02-22T05:17:02.057Z,99547.86
2023-02-22T05:19:30.699Z,99548.42
2023-02-22T05:21:58.977Z,99551.98
2023-02-22T05:24:27.695Z,99556.63
2023-02-22T05:26:55.875Z,99561.92
2023-02-22T05:29:24.437Z,99569.63
2023-02-22T05:31:52.743Z,99573.11
2023-02-22T05:34:21.382Z,99576.64
2023-02-22T05:36:49.694Z,99584.73
2023-02-22T05:39:21.312Z,99585.83
2023-02-22T05:41:49.840Z,99589.73
2023-02-22T05:44:17.999Z,99593.45
2023-02-22T05:46:46.260Z,99596.11
2023-02-22T05:49:15.050Z,99599.30
2023-02-22T05:51:43.431Z,99607.29
2023-02-22T05:54:11.604Z,99613.85
2023-02-22T05:56:40.301Z,99614.21
2023-02-22T05:59:08.677Z,99620.14
2023-02-22T06:01:38.107Z,99618.85
2023-02-22T06:04:06.662Z,99622.84
2023-02-22T06:06:34.749Z,99630.20
2023-02-22T06:09:02.837Z,99636.01
2023-02-22T06:11:31.183Z,99643.17
2023-02-22T06:13:59.772Z,99649.27
2023-02-22T06:16:28.325Z,99657.68
2023-02-22T06:18:56.730Z,99654.02
2023-02-22T06:21:25.829Z,99658.77
2023-02-22T06:23:54.017Z,99657.73
2023-02-22T06:26:23.204Z,99658.80
2023-02-22T06:28:51.733Z,99667.34
2023-02-22T06:31:20.823Z,99669.39
2023-02-22T06:33:49.238Z,99671.60
2023-02-22T06:36:17.377Z,99684.67
2023-02-22T06:38:45.610Z,99687.80
2023-02-22T06:41:15.996Z,99693.89
2023-02-22T06:43:48.053Z,99702.91
2023-02-22T06:46:16.596Z,99703.00
2023-02-22T06:48:44.709Z,99705.10
2023-02-22T06:51:13.060Z,99708.48
2023-02-22T06:53:41.530Z,99708.71
2023-02-22T06:56:09.640Z,99713.17
2023-02-22T06:58:38.925Z,99718.26
2023-02-22T07:01:08.129Z,99721.19
2023-02-22T07:03:36.554Z,99725.94
2023-02-22T07:06:06.589Z,99725.07
2023-02-22T07:08:39.419Z,99729.98
2023-02-22T07:11:07.602Z,99728.25
2023-02-22T07:13:37.731Z,99730.55
2023-02-22T07:16:09.459Z,99730.72
2023-02-22T07:18:38.768Z,99723.39
2023-02-22T07:21:07.664Z,99729.52
2023-02-22T07:23:36.537Z,99734.48
2023-02-22T07:26:05.671Z,99735.31
2023-02-22T07:28:33.816Z,99740.22
2023-02-22T07:31:02.349Z,99734.85
2023-02-22T07:33:30.994Z,99739.13
2023-02-22T07:35:59.257Z,99738.51
2023-02-22T07:38:27.333Z,99743.48
2023-02-22T07:40:58.070Z,99750.70
2023-02-22T07:43:27.516Z,99753.85
2023-02-22T07:45:56.696Z,99755.57
2023-02-22T07:48:27.149Z,99759.27
2023-02-22T07:50:55.619Z,99758.58
2023-02-22T07:53:30.429Z,99760.88
2023-02-22T07:55:59.029Z,99758.41
2023-02-22T07:58:28.623Z,99765.89
2023-02-22T08:01:03.850Z,99769.85
2023-02-22T08:03:36.661Z,99772.41
2023-02-22T08:06:06.629Z,99777.94
2023-02-22T08:08:35.106Z,99780.73
2023-02-22T08:11:04.353Z,99786.70
2023-02-22T08:13:33.219Z,99786.38
2023-02-22T08:16:02.171Z,99781.63
2023-02-22T08:18:30.846Z,99786.51
2023-02-22T08:20:59.311Z,99782.17
2023-02-22T08:23:27.921Z,99790.50
2023-02-22T08:25:56.341Z,99790.55
2023-02-22T08:28:24.844Z,99788.50
2023-02-22T08:30:53.287Z,99788.89
2023-02-22T08:33:25.999Z,99786.61
2023-02-22T08:35:58.013Z,99790.88
2023-02-22T08:38:28.616Z,99787.23
2023-02-22T08:40:56.992Z,99791.64
2023-02-22T08:43:25.741Z,99792.13
2023-02-22T08:45:56.932Z,99794.55
2023-02-22T08:48:25.805Z,99799.93
2023-02-22T08:50:55.042Z,99803.18
2023-02-22T08:53:23.529Z,99805.56
2023-02-22T08:55:51.749Z,99809.39
2023-02-22T08:58:20.254Z,99811.70
2023-02-22T09:00:49.257Z,99813.37
2023-02-22T09:03:17.532Z,99814.16
2023-02-22T09:05:46.139Z,99812.46
2023-02-22T09:08:16.164Z,99813.69
2023-02-22T09:10:45.450Z,99817.50
2023-02-22T09:13:17.017Z,99818.52
2023-02-22T09:15:45.415Z,99819.95
2023-02-22T09:18:14.792Z,99820.47
2023-02-22T09:20:46.016Z,99820.31
2023-02-22T09:23:14.695Z,99822.41
2023-02-22T09:25:43.724Z,99826.48
2023-02-22T09:28:11.965Z,99822.83
2023-02-22T09:30:40.190Z,99817.58
2023-02-22T09:33:10.660Z,99825.29
2023-02-22T09:35:42.667Z,99831.95
2023-02-22T09:38:11.860Z,99826.90
2023-02-22T09:40:45.303Z,99829.02
2023-02-22T09:43:33.928Z,99829.21
2023-02-22T09:46:42.274Z,99829.08
2023-02-22T09:49:14.012Z,99827.20
2023-02-22T09:51:54.557Z,99824.55
2023-02-22T09:54:25.569Z,99824.55
2023-02-22T09:56:56.824Z,99823.49
2023-02-22T09:59:28.912Z,99820.73
2023-02-22T10:02:14.465Z,99822.36
2023-02-22T10:04:45.417Z,99820.48
2023-02-22T10:07:20.969Z,99817.17
2023-02-22T10:09:49.126Z,99819.48
2023-02-22T10:12:33.397Z,99821.80
2023-02-22T10:15:07.605Z,99820.59
2023-02-22T10:17:43.957Z,99818.83
2023-02-22T10:20:38.407Z,99819.37
2023-02-22T10:23:15.771Z,99817.98
2023-02-22T10:25:45.274Z,99819.96
2023-02-22T10:28:20.057Z,99821.73
2023-02-22T10:30:56.239Z,99822.97
2023-02-22T10:33:30.320Z,99822.09
2023-02-22T10:36:02.853Z,99822.44
2023-02-22T10:38:35.123Z,99827.36
2023-02-22T10:41:23.387Z,99824.04
2023-02-22T10:43:51.472Z,99823.17
2023-02-22T10:46:21.300Z,99814.39
2023-02-22T10:48:52.193Z,99818.45
2023-02-22T10:51:20.474Z,99816.34
2023-02-22T10:54:20.176Z,99821.10
2023-02-22T10:56:50.551Z,99820.23
2023-02-22T10:59:29.696Z,99820.23
2023-02-22T11:01:57.718Z,99822.70
2023-02-22T11:04:26.118Z,99819.02
2023-02-22T11:07:08.737Z,99822.35
2023-02-22T11:10:08.310Z,99825.17
2023-02-22T11:12:47.932Z,99824.28
2023-02-22T11:15:19.103Z,99830.62
2023-02-22T11:17:50.472Z,99829.23
2023-02-22T11:20:25.835Z,99830.27
2023-02-22T11:22:55.916Z,99824.83
2023-02-22T11:25:26.852Z,99833.47
2023-02-22T11:27:54.963Z,99834.67
2023-02-22T11:30:31.387Z,99837.31
2023-02-22T11:33:12.820Z,99839.75
2023-02-22T11:35:55.157Z,99849.39
2023-02-22T11:38:23.790Z,99845.84
2023-02-22T11:41:06.113Z,99842.30
2023-02-22T11:43:35.518Z,99844.91
2023-02-22T11:46:32.684Z,99842.45
2023-02-22T11:49:07.051Z,99843.15
2023-02-22T11:51:42.521Z,99840.66
2023-02-22T11:54:33.083Z,99839.77
2023-02-22T11:57:22.358Z,99839.20
2023-02-22T12:00:24.972Z,99840.09
2023-02-22T12:03:17.400Z,99840.83
2023-02-22T12:06:07.139Z,99843.63
2023-02-22T12:08:38.960Z,99842.97
2023-02-22T12:11:18.398Z,99839.85
2023-02-22T12:14:05.781Z,99833.73
2023-02-22T12:16:40.082Z,99833.05
2023-02-22T12:19:26.645Z,99828.14
2023-02-22T12:21:58.514Z,99830.27
2023-02-22T12:24:35.756Z,99835.21
2023-02-22T12:27:28.488Z,99843.14
2023-02-22T12:30:18.757Z,99844.35
2023-02-22T12:33:08.427Z,99843.29
2023-02-22T12:35:42.299Z,99852.07
2023-02-22T12:38:15.058Z,99855.77
2023-02-22T12:40:47.803Z,99859.30
2023-02-22T12:43:39.033Z,99854.73
2023-02-22T12:46:07.529Z,99855.10
2023-02-22T12:48:42.228Z,99858.98
2023-02-22T12:51:43.225Z,99860.57
2023-02-22T12:54:33.671Z,99860.21
2023-02-22T12:57:44.569Z,99857.23
2023-02-22T13:00:17.222Z,99858.11
2023-02-22T13:02:46.547Z,99861.98
2023-02-22T13:05:17.980Z,99863.38
2023-02-22T13:08:14.433Z,99864.09
2023-02-22T13:10:52.335Z,99865.14
2023-02-22T13:13:31.679Z,99862.67
2023-02-22T13:16:22.613Z,99867.80
2023-02-22T13:18:56.974Z,99867.42
2023-02-22T13:21:30.169Z,99871.84
2023-02-22T13:24:20.489Z,99875.00
2023-02-22T13:27:11.427Z,99875.70
2023-02-22T13:29:44.955Z,99876.41
2023-02-22T13:32:31.857Z,99882.20
2023-02-22T13:35:06.472Z,99883.98
2023-02-22T13:37:46.340Z,99882.56
2023-02-22T13:40:46.549Z,99883.10
2023-02-22T13:43:37.285Z,99886.27
2023-02-22T13:46:12.814Z,99891.20
2023-02-22T13:48:46.919Z,99891.71
2023-02-22T13:51:33.776Z,99896.13
2023-02-22T13:54:13.097Z,99899.47
2023-02-22T13:56:46.439Z,99903.69
2023-02-22T13:59:36.410Z,99908.80
2023-02-22T14:02:05.639Z,99910.56
2023-02-22T14:04:39.928Z,99915.66
2023-02-22T14:07:21.893Z,99920.77
2023-02-22T14:09:56.187Z,99920.60
2023-02-22T14:12:34.919Z,99918.65
2023-02-22T14:15:30.870Z,99918.30
2023-02-22T14:18:04.361Z,99923.23
2023-02-22T14:20:38.339Z,99924.96
2023-02-22T14:23:29.159Z,99927.05
2023-02-22T14:25:58.198Z,99927.41
2023-02-22T14:28:36.827Z,99928.61
2023-02-22T14:31:38.127Z,99932.14
2023-02-22T14:34:08.958Z,99928.80
2023-02-22T14:36:41.996Z,99933.19
2023-02-22T14:39:13.238Z,99932.66
2023-02-22T14:41:46.140Z,99935.11
2023-02-22T14:44:14.359Z,99930.69
2023-02-22T14:46:42.799Z,99934.19
2023-02-22T14:49:18.925Z,99933.33
2023-02-22T14:51:59.876Z,99930.84
2023-02-22T14:54:39.961Z,99933.67
2023-02-22T14:57:18.743Z,99935.94
2023-02-22T14:59:57.301Z,99945.06
2023-02-22T15:02:26.248Z,99949.64
2023-02-22T15:04:55.809Z,99950.15
2023-02-22T15:07:30.033Z,99956.81
2023-02-22T15:10:20.752Z,99957.85
2023-02-22T15:13:09.146Z,99959.26
2023-02-22T15:15:48.217Z,99956.24
2023-02-22T15:18:35.644Z,99960.09
2023-02-22T15:21:24.965Z,99959.73
2023-02-22T15:23:59.442Z,99962.88
2023-02-22T15:26:59.010Z,99967.80
2023-02-22T15:29:39.587Z,99964.98
2023-02-22T15:32:31.212Z,99970.10
2023-02-22T15:35:25.866Z,99972.91
2023-02-22T15:38:10.742Z,99975.39
2023-02-22T15:40:43.153Z,99978.73
2023-02-22T15:43:28.579Z,99978.74
2023-02-22T15:45:57.407Z,99987.36
2023-02-22T15:48:26.987Z,99989.66
2023-02-22T15:51:10.651Z,99993.71
2023-02-22T15:53:43.654Z,99998.10
2023-02-22T15:56:16.515Z,100002.85
2023-02-22T15:58:46.196Z,100001.27
2023-02-22T16:01:17.905Z,100006.38
2023-02-22T16:03:47.426Z,100020.04
2023-02-22T16:07:59.118Z,100025.54
2023-02-22T16:10:31.743Z,100028.30
2023-02-22T16:13:32.801Z,100032.73
2023-02-22T16:16:02.669Z,100036.16
2023-02-22T16:18:37.039Z,100041.36
2023-02-22T16:21:15.377Z,100044.84
2023-02-22T16:23:46.552Z,100047.70
2023-02-22T16:26:26.127Z,100055.02
2023-02-22T16:29:05.324Z,100057.59
2023-02-22T16:31:37.353Z,100059.27
2023-02-22T16:34:06.139Z,100061.48
2023-02-22T16:36:43.150Z,100060.64
2023-02-22T16:39:21.990Z,100069.21
2023-02-22T16:41:50.242Z,100070.07
2023-02-22T16:44:17.069Z,100072.88
2023-02-22T16:46:44.662Z,100074.46
2023-02-22T16:49:12.307Z,100079.75
2023-02-22T16:51:54.751Z,100080.45
2023-02-22T16:54:25.325Z,100086.52
2023-02-22T16:56:52.406Z,100092.77
2023-02-22T16:59:19.838Z,100091.30
2023-02-22T17:01:46.713Z,100092.90
2023-02-22T17:04:19.478Z,100092.20
2023-02-22T17:06:47.122Z,100090.13
2023-02-22T17:09:15.062Z,100089.59
2023-02-22T17:11:42.243Z,100092.24
2023-02-22T17:14:09.760Z,100084.38
2023-02-22T17:16:37.064Z,100086.16
2023-02-22T17:26:45.337Z,100097.36
2023-02-22T17:29:17.875Z,100095.81
2023-02-22T17:31:46.393Z,100097.23
2023-02-22T17:34:14.462Z,100098.83
2023-02-22T17:36:42.815Z,100103.23
2023-02-22T17:39:11.124Z,100112.87
2023-02-22T17:41:40.671Z,100113.52
2023-02-22T17:44:09.149Z,100119.16
2023-02-22T17:46:40.872Z,100123.52
2023-02-22T17:49:11.915Z,100126.13
2023-02-22T17:51:49.721Z,100127.63
2023-02-22T17:54:18.014Z,100129.54
2023-02-22T17:56:46.783Z,100133.45
2023-02-22T17:59:15.257Z,100134.67
2023-02-22T18:01:44.180Z,100141.77
2023-02-22T18:04:12.488Z,100145.46
2023-02-22T18:06:41.375Z,100147.08
2023-02-22T18:09:14.806Z,100149.36
2023-02-22T18:11:43.730Z,100150.23
2023-02-22T18:14:12.465Z,100151.86
2023-02-22T18:16:47.052Z,100153.22
2023-02-22T18:19:21.010Z,100154.69
2023-02-22T18:21:50.338Z,100160.42
2023-02-22T18:24:19.388Z,100161.25
2023-02-22T18:26:47.783Z,100162.84
2023-02-22T18:29:16.471Z,100169.70
2023-02-22T18:31:45.642Z,100169.23
2023-02-22T18:34:17.707Z,100170.91
2023-02-22T18:36:46.148Z,100172.70
2023-02-22T18:39:14.233Z,100172.61
2023-02-22T18:41:42.711Z,100176.75
2023-02-22T18:44:11.547Z,100181.14
2023-02-22T18:46:40.452Z,100179.00
2023-02-22T18:49:13.808Z,100180.89
2023-02-22T18:51:43.762Z,100183.14
2023-02-22T18:54:13.250Z,100184.66
2023-02-22T18:56:41.485Z,100188.23
2023-02-22T18:59:12.357Z,100190.12
2023-02-22T19:01:48.979Z,100192.29
2023-02-22T19:04:18.326Z,100196.33
2023-02-22T19:06:48.730Z,100196.70
2023-02-22T19:09:17.656Z,100206.39
2023-02-22T19:11:46.820Z,100206.72
2023-02-22T19:14:16.594Z,100204.27
2023-02-22T19:16:46.670Z,100212.18
2023-02-22T19:19:20.856Z,100211.52
2023-02-22T19:21:49.354Z,100215.95
2023-02-22T19:24:21.147Z,100220.57
2023-02-22T19:26:57.284Z,100223.70
2023-02-22T19:29:27.504Z,100226.50
2023-02-22T19:31:55.918Z,100231.27
2023-02-22T19:34:26.101Z,100233.02
2023-02-22T19:37:41.222Z,100236.70
2023-02-22T19:40:11.893Z,100234.66
2023-02-22T19:42:40.623Z,100235.48
2023-02-22T19:45:09.088Z,100235.98
2023-02-22T19:47:39.000Z,100232.61
2023-02-22T19:50:08.005Z,100229.24
2023-02-22T19:52:39.021Z,100228.84
2023-02-22T19:55:12.949Z,100233.84
2023-02-22T19:57:41.452Z,100234.30
2023-02-22T20:00:13.742Z,100234.69
2023-02-22T20:02:44.848Z,100239.70
2023-02-22T20:05:16.565Z,100244.31
2023-02-22T20:07:46.604Z,100247.79
2023-02-22T20:10:15.824Z,100252.33
2023-02-22T20:12:43.995Z,100252.44
2023-02-22T20:15:13.195Z,100256.08
2023-02-22T20:17:42.167Z,100257.78
2023-02-22T20:20:10.778Z,100260.22
2023-02-22T20:22:40.998Z,100263.22
2023-02-22T20:25:09.215Z,100267.64
2023-02-22T20:27:38.380Z,100272.03
2023-02-22T20:30:11.950Z,100274.46
2023-02-22T20:32:42.984Z,100271.59
2023-02-22T20:35:16.825Z,100274.63
2023-02-22T20:37:45.626Z,100275.56
2023-02-22T20:40:14.098Z,100275.92
2023-02-22T20:42:44.965Z,100278.20
2023-02-22T20:45:15.057Z,100276.77
2023-02-22T20:47:43.570Z,100283.78
2023-02-22T20:50:12.030Z,100282.86
2023-02-22T20:52:41.715Z,100284.38
2023-02-22T20:55:11.551Z,100290.98
2023-02-22T20:57:39.838Z,100294.23
2023-02-22T21:00:10.594Z,100297.55
2023-02-22T21:02:38.744Z,100298.48
2023-02-22T21:05:07.257Z,100300.15
2023-02-22T21:07:36.005Z,100306.70
2023-02-22T21:10:06.786Z,100308.46
2023-02-22T21:12:35.483Z,100311.92
2023-02-22T21:15:04.430Z,100314.02
2023-02-22T21:17:32.819Z,100314.65
2023-02-22T21:20:03.792Z,100323.16
2023-02-22T21:22:33.895Z,100330.46
2023-02-22T21:25:02.662Z,100333.65
2023-02-22T21:27:32.691Z,100338.23
2023-02-22T21:30:00.960Z,100339.46
2023-02-22T21:32:29.460Z,100337.51
2023-02-22T21:34:57.786Z,100340.17
2023-02-22T21:37:26.199Z,100338.96
2023-02-22T21:39:54.633Z,100343.92
2023-02-22T21:42:23.166Z,100344.16
2023-02-22T21:44:56.064Z,100344.06
2023-02-22T21:47:24.138Z,100348.52
2023-02-22T21:49:52.959Z,100350.34
2023-02-22T21:52:21.108Z,100346.27
2023-02-22T21:54:51.043Z,100348.09
2023-02-22T21:57:19.397Z,100353.32
2023-02-22T21:59:48.606Z,100358.77
2023-02-22T22:02:17.000Z,100366.48
2023-02-22T22:04:45.965Z,100372.50
2023-02-22T22:07:17.934Z,100373.16
2023-02-22T22:09:48.304Z,100377.98
2023-02-22T22:12:17.973Z,100383.40
2023-02-22T22:14:47.189Z,100390.22
2023-02-22T22:17:18.916Z,100392.91
2023-02-22T22:19:48.889Z,100395.93
2023-02-22T22:22:17.163Z,100393.69
2023-02-22T22:24:48.675Z,100393.44
2023-02-22T22:27:17.131Z,100392.54
2023-02-22T22:29:45.666Z,100389.91
2023-02-22T22:32:16.403Z,100395.34
2023-02-22T22:34:49.366Z,100398.77
2023-02-22T22:37:17.950Z,100405.12
2023-02-22T22:39:46.088Z,100411.80
2023-02-22T22:42:14.559Z,100415.91
2023-02-22T22:44:42.612Z,100417.79
2023-02-22T22:47:14.030Z,100420.48
2023-02-22T22:49:42.874Z,100424.98
2023-02-22T22:52:16.378Z,100422.80
2023-02-22T22:54:50.757Z,100428.34
2023-02-22T22:57:18.894Z,100427.42
2023-02-22T22:59:47.059Z,100430.58
2023-02-22T23:02:19.858Z,100432.37
2023-02-22T23:04:51.773Z,100433.35
2023-02-22T23:07:19.831Z,100437.84
2023-02-22T23:09:48.870Z,100440.09
2023-02-22T23:12:17.935Z,100441.71
2023-02-22T23:14:52.061Z,100442.76
2023-02-22T23:17:41.261Z,100443.20
2023-02-22T23:20:13.564Z,100445.48
2023-02-22T23:22:47.350Z,100446.32
2023-02-22T23:25:19.519Z,100449.25
2023-02-22T23:27:48.237Z,100456.04
2023-02-22T23:30:18.730Z,100458.76
2023-02-22T23:32:47.808Z,100466.67
2023-02-22T23:35:15.941Z,100468.70
2023-02-22T23:37:46.330Z,100470.27
2023-02-22T23:40:18.823Z,100472.25
2023-02-22T23:42:51.452Z,100471.52
2023-02-22T23:45:22.934Z,100476.11
2023-02-22T23:47:54.999Z,100483.52
2023-02-22T23:50:27.257Z,100490.71
2023-02-22T23:52:59.085Z,100489.81
2023-02-22T23:55:28.335Z,100492.11
2023-02-22T23:57:59.706Z,100497.31
